sensor_id;sensor_type;location;lat;lon;timestamp;temperature;humidity
14705;DHT22;7442;50.840;3.396;2023-09-18T00:00:13;24.20;81.30
14705;DHT22;7442;50.840;3.396;2023-09-18T00:02:59;24.20;81.20
14705;DHT22;7442;50.840;3.396;2023-09-18T00:05:48;24.20;81.20
14705;DHT22;7442;50.840;3.396;2023-09-18T00:08:34;24.20;81.10
14705;DHT22;7442;50.840;3.396;2023-09-18T00:11:20;24.20;81.10
14705;DHT22;7442;50.840;3.396;2023-09-18T00:14:08;24.30;81.10
14705;DHT22;7442;50.840;3.396;2023-09-18T00:16:54;24.20;81.00
14705;DHT22;7442;50.840;3.396;2023-09-18T00:19:43;24.20;81.00
14705;DHT22;7442;50.840;3.396;2023-09-18T00:22:29;24.20;80.90
14705;DHT22;7442;50.840;3.396;2023-09-18T00:25:16;24.20;80.80
14705;DHT22;7442;50.840;3.396;2023-09-18T00:28:02;24.30;80.80
14705;DHT22;7442;50.840;3.396;2023-09-18T00:30:49;24.20;80.70
14705;DHT22;7442;50.840;3.396;2023-09-18T00:33:35;24.20;80.60
14705;DHT22;7442;50.840;3.396;2023-09-18T00:36:23;24.20;80.60
14705;DHT22;7442;50.840;3.396;2023-09-18T00:39:09;24.20;80.60
14705;DHT22;7442;50.840;3.396;2023-09-18T00:41:55;24.20;80.50
14705;DHT22;7442;50.840;3.396;2023-09-18T00:44:43;24.20;80.60
14705;DHT22;7442;50.840;3.396;2023-09-18T00:47:29;24.20;80.50
14705;DHT22;7442;50.840;3.396;2023-09-18T00:50:16;24.20;80.40
14705;DHT22;7442;50.840;3.396;2023-09-18T00:53:02;24.20;80.40
14705;DHT22;7442;50.840;3.396;2023-09-18T00:55:50;24.20;80.40
14705;DHT22;7442;50.840;3.396;2023-09-18T00:58:37;24.20;80.30
14705;DHT22;7442;50.840;3.396;2023-09-18T01:01:23;24.20;80.30
14705;DHT22;7442;50.840;3.396;2023-09-18T01:04:09;24.20;80.30
14705;DHT22;7442;50.840;3.396;2023-09-18T01:06:57;24.20;80.30
14705;DHT22;7442;50.840;3.396;2023-09-18T01:09:44;24.20;80.30
14705;DHT22;7442;50.840;3.396;2023-09-18T01:12:48;24.20;80.30
14705;DHT22;7442;50.840;3.396;2023-09-18T01:15:37;24.20;80.30
14705;DHT22;7442;50.840;3.396;2023-09-18T01:18:25;24.20;80.20
14705;DHT22;7442;50.840;3.396;2023-09-18T01:21:11;24.20;80.10
14705;DHT22;7442;50.840;3.396;2023-09-18T01:23:57;24.20;80.10
14705;DHT22;7442;50.840;3.396;2023-09-18T01:26:43;24.20;80.10
14705;DHT22;7442;50.840;3.396;2023-09-18T01:29:30;24.20;80.00
14705;DHT22;7442;50.840;3.396;2023-09-18T01:32:17;24.20;80.00
14705;DHT22;7442;50.840;3.396;2023-09-18T01:35:05;24.20;79.90
14705;DHT22;7442;50.840;3.396;2023-09-18T01:37:52;24.20;79.90
14705;DHT22;7442;50.840;3.396;2023-09-18T01:40:39;24.20;79.90
14705;DHT22;7442;50.840;3.396;2023-09-18T01:43:26;24.20;79.90
14705;DHT22;7442;50.840;3.396;2023-09-18T01:46:12;24.20;79.90
14705;DHT22;7442;50.840;3.396;2023-09-18T01:48:59;24.20;79.90
14705;DHT22;7442;50.840;3.396;2023-09-18T01:51:45;24.20;79.80
14705;DHT22;7442;50.840;3.396;2023-09-18T01:54:32;24.20;79.80
14705;DHT22;7442;50.840;3.396;2023-09-18T01:57:19;24.20;79.80
14705;DHT22;7442;50.840;3.396;2023-09-18T02:00:06;24.20;79.80
14705;DHT22;7442;50.840;3.396;2023-09-18T02:02:53;24.20;79.80
14705;DHT22;7442;50.840;3.396;2023-09-18T02:05:40;24.20;79.70
14705;DHT22;7442;50.840;3.396;2023-09-18T02:08:27;24.10;79.70
14705;DHT22;7442;50.840;3.396;2023-09-18T02:11:13;24.10;79.80
14705;DHT22;7442;50.840;3.396;2023-09-18T02:14:00;24.10;79.70
14705;DHT22;7442;50.840;3.396;2023-09-18T02:16:47;24.10;79.70
14705;DHT22;7442;50.840;3.396;2023-09-18T02:19:33;24.10;79.60
14705;DHT22;7442;50.840;3.396;2023-09-18T02:22:19;24.10;79.50
14705;DHT22;7442;50.840;3.396;2023-09-18T02:25:06;24.10;79.40
14705;DHT22;7442;50.840;3.396;2023-09-18T02:27:53;24.10;79.40
14705;DHT22;7442;50.840;3.396;2023-09-18T02:30:40;24.10;79.40
14705;DHT22;7442;50.840;3.396;2023-09-18T02:33:28;24.10;79.40
14705;DHT22;7442;50.840;3.396;2023-09-18T02:36:14;24.10;79.40
14705;DHT22;7442;50.840;3.396;2023-09-18T02:39:01;24.10;79.40
14705;DHT22;7442;50.840;3.396;2023-09-18T02:41:47;24.10;79.40
14705;DHT22;7442;50.840;3.396;2023-09-18T02:44:33;24.10;79.30
14705;DHT22;7442;50.840;3.396;2023-09-18T02:47:19;24.10;79.30
14705;DHT22;7442;50.840;3.396;2023-09-18T02:50:06;24.10;79.30
14705;DHT22;7442;50.840;3.396;2023-09-18T02:52:53;24.10;79.30
14705;DHT22;7442;50.840;3.396;2023-09-18T02:55:39;24.10;79.20
14705;DHT22;7442;50.840;3.396;2023-09-18T02:58:26;24.10;79.20
14705;DHT22;7442;50.840;3.396;2023-09-18T03:01:14;24.10;79.20
14705;DHT22;7442;50.840;3.396;2023-09-18T03:04:00;24.10;79.10
14705;DHT22;7442;50.840;3.396;2023-09-18T03:06:46;24.10;79.20
14705;DHT22;7442;50.840;3.396;2023-09-18T03:09:32;24.10;79.10
14705;DHT22;7442;50.840;3.396;2023-09-18T03:12:20;24.10;79.00
14705;DHT22;7442;50.840;3.396;2023-09-18T03:15:07;24.00;79.00
14705;DHT22;7442;50.840;3.396;2023-09-18T03:17:54;24.10;79.00
14705;DHT22;7442;50.840;3.396;2023-09-18T03:20:40;24.10;79.00
14705;DHT22;7442;50.840;3.396;2023-09-18T03:23:27;24.00;79.00
14705;DHT22;7442;50.840;3.396;2023-09-18T03:26:13;24.00;79.00
14705;DHT22;7442;50.840;3.396;2023-09-18T03:28:59;24.00;79.00
14705;DHT22;7442;50.840;3.396;2023-09-18T03:31:46;24.00;79.00
14705;DHT22;7442;50.840;3.396;2023-09-18T03:34:32;24.00;79.00
14705;DHT22;7442;50.840;3.396;2023-09-18T03:37:18;24.00;79.00
14705;DHT22;7442;50.840;3.396;2023-09-18T03:40:05;24.00;79.00
14705;DHT22;7442;50.840;3.396;2023-09-18T03:42:52;24.00;79.00
14705;DHT22;7442;50.840;3.396;2023-09-18T03:45:38;24.00;78.90
14705;DHT22;7442;50.840;3.396;2023-09-18T03:48:26;24.00;79.00
14705;DHT22;7442;50.840;3.396;2023-09-18T03:51:12;24.00;78.90
14705;DHT22;7442;50.840;3.396;2023-09-18T03:54:00;24.00;78.90
14705;DHT22;7442;50.840;3.396;2023-09-18T03:56:46;24.00;78.90
14705;DHT22;7442;50.840;3.396;2023-09-18T03:59:32;24.00;78.80
14705;DHT22;7442;50.840;3.396;2023-09-18T04:02:18;23.90;78.70
14705;DHT22;7442;50.840;3.396;2023-09-18T04:05:05;24.00;78.80
14705;DHT22;7442;50.840;3.396;2023-09-18T04:07:52;23.90;78.70
14705;DHT22;7442;50.840;3.396;2023-09-18T04:10:38;23.90;78.70
14705;DHT22;7442;50.840;3.396;2023-09-18T04:13:25;23.90;78.70
14705;DHT22;7442;50.840;3.396;2023-09-18T04:16:11;24.00;78.70
14705;DHT22;7442;50.840;3.396;2023-09-18T04:18:59;23.90;78.70
14705;DHT22;7442;50.840;3.396;2023-09-18T04:21:45;23.90;78.60
14705;DHT22;7442;50.840;3.396;2023-09-18T04:24:33;23.90;78.50
14705;DHT22;7442;50.840;3.396;2023-09-18T04:27:19;23.90;78.60
14705;DHT22;7442;50.840;3.396;2023-09-18T04:30:06;23.90;78.60
14705;DHT22;7442;50.840;3.396;2023-09-18T04:32:54;23.90;78.60
14705;DHT22;7442;50.840;3.396;2023-09-18T04:35:40;23.90;78.50
14705;DHT22;7442;50.840;3.396;2023-09-18T04:38:27;23.90;78.40
14705;DHT22;7442;50.840;3.396;2023-09-18T04:41:14;23.90;78.40
14705;DHT22;7442;50.840;3.396;2023-09-18T04:44:00;23.90;78.40
14705;DHT22;7442;50.840;3.396;2023-09-18T04:46:47;23.90;78.40
14705;DHT22;7442;50.840;3.396;2023-09-18T04:49:33;23.90;78.40
14705;DHT22;7442;50.840;3.396;2023-09-18T04:52:19;23.90;78.40
14705;DHT22;7442;50.840;3.396;2023-09-18T04:55:06;23.90;78.50
14705;DHT22;7442;50.840;3.396;2023-09-18T04:57:53;23.90;78.40
14705;DHT22;7442;50.840;3.396;2023-09-18T05:00:40;23.90;78.30
14705;DHT22;7442;50.840;3.396;2023-09-18T05:03:26;23.90;78.20
14705;DHT22;7442;50.840;3.396;2023-09-18T05:06:14;23.90;78.10
14705;DHT22;7442;50.840;3.396;2023-09-18T05:09:01;23.90;78.20
14705;DHT22;7442;50.840;3.396;2023-09-18T05:11:48;23.90;78.10
14705;DHT22;7442;50.840;3.396;2023-09-18T05:14:34;23.90;78.00
14705;DHT22;7442;50.840;3.396;2023-09-18T05:17:21;23.90;78.10
14705;DHT22;7442;50.840;3.396;2023-09-18T05:22:58;23.90;79.60
14705;DHT22;7442;50.840;3.396;2023-09-18T05:25:45;26.00;70.10
14705;DHT22;7442;50.840;3.396;2023-09-18T05:28:37;27.20;65.50
14705;DHT22;7442;50.840;3.396;2023-09-18T05:31:30;27.60;63.80
14705;DHT22;7442;50.840;3.396;2023-09-18T05:34:23;27.60;63.60
14705;DHT22;7442;50.840;3.396;2023-09-18T05:37:17;27.60;63.20
14705;DHT22;7442;50.840;3.396;2023-09-18T05:40:11;27.60;63.20
14705;DHT22;7442;50.840;3.396;2023-09-18T05:43:05;27.70;62.90
14705;DHT22;7442;50.840;3.396;2023-09-18T05:45:59;27.80;62.50
14705;DHT22;7442;50.840;3.396;2023-09-18T05:48:52;27.90;61.80
14705;DHT22;7442;50.840;3.396;2023-09-18T05:51:46;28.20;61.10
14705;DHT22;7442;50.840;3.396;2023-09-18T05:54:34;28.60;60.20
14705;DHT22;7442;50.840;3.396;2023-09-18T05:57:22;28.70;59.60
14705;DHT22;7442;50.840;3.396;2023-09-18T06:00:08;28.60;59.50
14705;DHT22;7442;50.840;3.396;2023-09-18T06:02:56;28.60;59.40
14705;DHT22;7442;50.840;3.396;2023-09-18T06:05:44;28.40;59.60
14705;DHT22;7442;50.840;3.396;2023-09-18T06:08:30;28.10;60.30
14705;DHT22;7442;50.840;3.396;2023-09-18T06:11:19;27.90;61.20
14705;DHT22;7442;50.840;3.396;2023-09-18T06:14:05;27.60;62.00
14705;DHT22;7442;50.840;3.396;2023-09-18T06:16:51;27.40;62.70
14705;DHT22;7442;50.840;3.396;2023-09-18T06:19:38;27.20;63.20
14705;DHT22;7442;50.840;3.396;2023-09-18T06:22:24;27.10;62.90
14705;DHT22;7442;50.840;3.396;2023-09-18T06:25:10;27.00;63.70
14705;DHT22;7442;50.840;3.396;2023-09-18T06:27:58;26.90;63.80
14705;DHT22;7442;50.840;3.396;2023-09-18T06:30:45;26.90;63.90
14705;DHT22;7442;50.840;3.396;2023-09-18T06:33:31;26.90;63.90
14705;DHT22;7442;50.840;3.396;2023-09-18T06:36:18;26.90;64.10
14705;DHT22;7442;50.840;3.396;2023-09-18T06:39:04;26.80;64.10
14705;DHT22;7442;50.840;3.396;2023-09-18T06:41:51;26.80;64.10
14705;DHT22;7442;50.840;3.396;2023-09-18T06:44:38;26.80;64.00
14705;DHT22;7442;50.840;3.396;2023-09-18T06:47:24;26.80;64.00
14705;DHT22;7442;50.840;3.396;2023-09-18T06:50:10;26.70;64.10
14705;DHT22;7442;50.840;3.396;2023-09-18T06:52:57;26.70;64.00
14705;DHT22;7442;50.840;3.396;2023-09-18T06:55:43;26.80;63.90
14705;DHT22;7442;50.840;3.396;2023-09-18T06:58:30;26.80;63.90
14705;DHT22;7442;50.840;3.396;2023-09-18T07:01:17;26.70;63.80
14705;DHT22;7442;50.840;3.396;2023-09-18T07:04:04;26.70;63.80
14705;DHT22;7442;50.840;3.396;2023-09-18T07:06:51;26.70;63.70
14705;DHT22;7442;50.840;3.396;2023-09-18T07:09:39;26.90;63.20
14705;DHT22;7442;50.840;3.396;2023-09-18T07:12:25;26.90;63.10
14705;DHT22;7442;50.840;3.396;2023-09-18T07:15:13;26.90;63.20
14705;DHT22;7442;50.840;3.396;2023-09-18T07:17:59;26.90;63.20
14705;DHT22;7442;50.840;3.396;2023-09-18T07:20:47;26.80;63.10
14705;DHT22;7442;50.840;3.396;2023-09-18T07:23:33;26.80;63.30
14705;DHT22;7442;50.840;3.396;2023-09-18T07:26:23;26.80;63.30
14705;DHT22;7442;50.840;3.396;2023-09-18T07:29:09;26.80;63.40
14705;DHT22;7442;50.840;3.396;2023-09-18T07:31:59;26.80;63.30
14705;DHT22;7442;50.840;3.396;2023-09-18T07:34:47;27.30;61.80
14705;DHT22;7442;50.840;3.396;2023-09-18T07:37:33;27.60;60.60
14705;DHT22;7442;50.840;3.396;2023-09-18T07:40:21;27.70;60.20
14705;DHT22;7442;50.840;3.396;2023-09-18T07:43:07;27.60;60.20
14705;DHT22;7442;50.840;3.396;2023-09-18T07:45:54;27.60;60.40
14705;DHT22;7442;50.840;3.396;2023-09-18T07:48:41;27.60;60.30
14705;DHT22;7442;50.840;3.396;2023-09-18T07:51:28;27.60;60.20
14705;DHT22;7442;50.840;3.396;2023-09-18T07:54:15;27.60;60.50
14705;DHT22;7442;50.840;3.396;2023-09-18T07:57:01;27.60;60.50
14705;DHT22;7442;50.840;3.396;2023-09-18T07:59:47;27.50;60.60
14705;DHT22;7442;50.840;3.396;2023-09-18T08:02:34;27.40;60.60
14705;DHT22;7442;50.840;3.396;2023-09-18T08:05:20;27.40;61.50
14705;DHT22;7442;50.840;3.396;2023-09-18T08:08:06;27.40;60.70
14705;DHT22;7442;50.840;3.396;2023-09-18T08:10:53;27.40;60.80
14705;DHT22;7442;50.840;3.396;2023-09-18T08:13:39;27.40;60.50
14705;DHT22;7442;50.840;3.396;2023-09-18T08:16:26;27.40;60.40
14705;DHT22;7442;50.840;3.396;2023-09-18T08:19:15;27.40;60.60
14705;DHT22;7442;50.840;3.396;2023-09-18T08:22:03;27.40;60.60
14705;DHT22;7442;50.840;3.396;2023-09-18T08:24:49;27.40;60.60
14705;DHT22;7442;50.840;3.396;2023-09-18T08:27:38;27.40;60.50
14705;DHT22;7442;50.840;3.396;2023-09-18T08:30:30;27.40;60.50
14705;DHT22;7442;50.840;3.396;2023-09-18T08:33:16;27.40;60.60
14705;DHT22;7442;50.840;3.396;2023-09-18T08:36:03;27.40;60.60
14705;DHT22;7442;50.840;3.396;2023-09-18T08:38:49;27.40;60.40
14705;DHT22;7442;50.840;3.396;2023-09-18T08:41:38;27.40;60.40
14705;DHT22;7442;50.840;3.396;2023-09-18T08:47:14;27.60;59.80
14705;DHT22;7442;50.840;3.396;2023-09-18T08:50:03;27.60;60.00
14705;DHT22;7442;50.840;3.396;2023-09-18T08:52:50;27.70;59.50
14705;DHT22;7442;50.840;3.396;2023-09-18T08:55:37;27.90;59.30
14705;DHT22;7442;50.840;3.396;2023-09-18T08:58:25;28.10;58.80
14705;DHT22;7442;50.840;3.396;2023-09-18T09:01:12;28.10;58.60
14705;DHT22;7442;50.840;3.396;2023-09-18T09:03:58;28.00;58.70
14705;DHT22;7442;50.840;3.396;2023-09-18T09:06:46;27.90;59.10
14705;DHT22;7442;50.840;3.396;2023-09-18T09:09:35;27.80;59.30
14705;DHT22;7442;50.840;3.396;2023-09-18T09:12:47;27.90;59.00
14705;DHT22;7442;50.840;3.396;2023-09-18T09:15:46;28.30;57.90
14705;DHT22;7442;50.840;3.396;2023-09-18T09:18:33;28.40;57.70
14705;DHT22;7442;50.840;3.396;2023-09-18T09:21:20;28.80;56.50
14705;DHT22;7442;50.840;3.396;2023-09-18T09:24:06;28.50;57.10
14705;DHT22;7442;50.840;3.396;2023-09-18T09:26:59;28.20;57.40
14705;DHT22;7442;50.840;3.396;2023-09-18T09:30:01;28.00;58.10
14705;DHT22;7442;50.840;3.396;2023-09-18T09:32:50;27.90;58.30
14705;DHT22;7442;50.840;3.396;2023-09-18T09:35:37;27.80;58.40
14705;DHT22;7442;50.840;3.396;2023-09-18T09:38:32;27.80;58.30
14705;DHT22;7442;50.840;3.396;2023-09-18T09:41:19;27.80;58.50
14705;DHT22;7442;50.840;3.396;2023-09-18T09:44:05;27.80;58.60
14705;DHT22;7442;50.840;3.396;2023-09-18T09:46:51;27.80;58.60
14705;DHT22;7442;50.840;3.396;2023-09-18T09:49:48;27.80;58.90
14705;DHT22;7442;50.840;3.396;2023-09-18T09:52:34;27.90;58.90
14705;DHT22;7442;50.840;3.396;2023-09-18T09:55:23;27.80;58.80
14705;DHT22;7442;50.840;3.396;2023-09-18T09:58:11;27.70;58.80
14705;DHT22;7442;50.840;3.396;2023-09-18T10:01:02;27.70;58.90
14705;DHT22;7442;50.840;3.396;2023-09-18T10:03:48;27.70;59.00
14705;DHT22;7442;50.840;3.396;2023-09-18T10:06:36;27.80;58.80
14705;DHT22;7442;50.840;3.396;2023-09-18T10:09:23;27.90;58.70
14705;DHT22;7442;50.840;3.396;2023-09-18T10:12:12;27.90;58.40
14705;DHT22;7442;50.840;3.396;2023-09-18T10:15:08;27.90;58.10
14705;DHT22;7442;50.840;3.396;2023-09-18T10:17:58;27.90;58.20
14705;DHT22;7442;50.840;3.396;2023-09-18T10:20:46;27.80;58.00
14705;DHT22;7442;50.840;3.396;2023-09-18T10:23:46;27.90;57.90
14705;DHT22;7442;50.840;3.396;2023-09-18T10:26:35;27.80;57.90
14705;DHT22;7442;50.840;3.396;2023-09-18T10:29:24;28.00;57.90
14705;DHT22;7442;50.840;3.396;2023-09-18T10:32:12;28.20;57.60
14705;DHT22;7442;50.840;3.396;2023-09-18T10:35:00;28.20;57.60
14705;DHT22;7442;50.840;3.396;2023-09-18T10:37:48;28.10;57.70
14705;DHT22;7442;50.840;3.396;2023-09-18T10:40:36;28.00;57.80
14705;DHT22;7442;50.840;3.396;2023-09-18T10:43:23;27.90;58.00
14705;DHT22;7442;50.840;3.396;2023-09-18T10:46:10;27.90;57.80
14705;DHT22;7442;50.840;3.396;2023-09-18T10:49:00;27.90;57.70
14705;DHT22;7442;50.840;3.396;2023-09-18T10:51:48;28.00;57.90
14705;DHT22;7442;50.840;3.396;2023-09-18T10:54:36;28.20;57.80
14705;DHT22;7442;50.840;3.396;2023-09-18T10:57:24;28.20;57.50
14705;DHT22;7442;50.840;3.396;2023-09-18T11:00:12;28.20;57.20
14705;DHT22;7442;50.840;3.396;2023-09-18T11:03:16;28.20;57.20
14705;DHT22;7442;50.840;3.396;2023-09-18T11:06:11;28.20;57.40
14705;DHT22;7442;50.840;3.396;2023-09-18T11:09:05;28.30;57.30
14705;DHT22;7442;50.840;3.396;2023-09-18T11:17:42;28.40;56.50
14705;DHT22;7442;50.840;3.396;2023-09-18T11:20:29;28.30;56.40
14705;DHT22;7442;50.840;3.396;2023-09-18T11:23:17;28.30;56.10
14705;DHT22;7442;50.840;3.396;2023-09-18T11:26:11;28.30;56.00
14705;DHT22;7442;50.840;3.396;2023-09-18T11:29:06;28.30;56.20
14705;DHT22;7442;50.840;3.396;2023-09-18T11:31:56;28.40;56.00
14705;DHT22;7442;50.840;3.396;2023-09-18T11:34:43;28.40;55.40
14705;DHT22;7442;50.840;3.396;2023-09-18T11:37:30;28.50;55.50
14705;DHT22;7442;50.840;3.396;2023-09-18T11:40:31;28.60;55.50
14705;DHT22;7442;50.840;3.396;2023-09-18T11:43:27;28.70;55.50
14705;DHT22;7442;50.840;3.396;2023-09-18T11:46:19;28.70;55.30
14705;DHT22;7442;50.840;3.396;2023-09-18T11:49:14;28.70;55.30
14705;DHT22;7442;50.840;3.396;2023-09-18T11:51:59;28.70;55.40
14705;DHT22;7442;50.840;3.396;2023-09-18T11:54:45;28.70;54.80
14705;DHT22;7442;50.840;3.396;2023-09-18T11:57:39;28.80;54.90
14705;DHT22;7442;50.840;3.396;2023-09-18T12:00:23;28.70;55.00
14705;DHT22;7442;50.840;3.396;2023-09-18T12:03:15;28.70;55.20
14705;DHT22;7442;50.840;3.396;2023-09-18T12:06:07;28.60;55.20
14705;DHT22;7442;50.840;3.396;2023-09-18T12:08:55;28.60;54.90
14705;DHT22;7442;50.840;3.396;2023-09-18T12:11:42;28.60;54.30
14705;DHT22;7442;50.840;3.396;2023-09-18T12:14:31;28.60;54.20
14705;DHT22;7442;50.840;3.396;2023-09-18T12:17:18;28.50;54.30
14705;DHT22;7442;50.840;3.396;2023-09-18T12:20:05;28.50;54.40
14705;DHT22;7442;50.840;3.396;2023-09-18T12:22:51;28.50;54.40
14705;DHT22;7442;50.840;3.396;2023-09-18T12:25:39;28.50;54.60
14705;DHT22;7442;50.840;3.396;2023-09-18T12:28:26;28.40;54.90
14705;DHT22;7442;50.840;3.396;2023-09-18T12:31:16;28.50;54.60
14705;DHT22;7442;50.840;3.396;2023-09-18T12:34:02;28.50;54.30
14705;DHT22;7442;50.840;3.396;2023-09-18T12:36:50;28.50;54.50
14705;DHT22;7442;50.840;3.396;2023-09-18T12:39:36;28.40;54.50
14705;DHT22;7442;50.840;3.396;2023-09-18T12:42:23;28.50;54.50
14705;DHT22;7442;50.840;3.396;2023-09-18T12:45:10;28.40;54.20
14705;DHT22;7442;50.840;3.396;2023-09-18T12:47:58;28.40;54.70
14705;DHT22;7442;50.840;3.396;2023-09-18T12:50:45;28.40;55.20
14705;DHT22;7442;50.840;3.396;2023-09-18T12:53:32;28.30;55.10
14705;DHT22;7442;50.840;3.396;2023-09-18T12:56:18;28.30;55.20
14705;DHT22;7442;50.840;3.396;2023-09-18T12:59:05;28.30;55.30
14705;DHT22;7442;50.840;3.396;2023-09-18T13:01:51;28.30;55.40
14705;DHT22;7442;50.840;3.396;2023-09-18T13:04:38;28.30;55.50
14705;DHT22;7442;50.840;3.396;2023-09-18T13:07:24;28.30;55.60
14705;DHT22;7442;50.840;3.396;2023-09-18T13:10:12;28.20;55.60
14705;DHT22;7442;50.840;3.396;2023-09-18T13:13:00;28.20;55.80
14705;DHT22;7442;50.840;3.396;2023-09-18T13:15:48;28.20;56.00
14705;DHT22;7442;50.840;3.396;2023-09-18T13:18:35;28.20;56.20
14705;DHT22;7442;50.840;3.396;2023-09-18T13:21:21;28.10;56.40
14705;DHT22;7442;50.840;3.396;2023-09-18T13:24:23;28.20;56.50
14705;DHT22;7442;50.840;3.396;2023-09-18T13:26:56;28.20;56.60
14705;DHT22;7442;50.840;3.396;2023-09-18T13:29:43;28.10;56.60
14705;DHT22;7442;50.840;3.396;2023-09-18T13:32:30;28.10;56.60
14705;DHT22;7442;50.840;3.396;2023-09-18T13:35:17;28.10;56.60
14705;DHT22;7442;50.840;3.396;2023-09-18T13:38:04;28.10;56.70
14705;DHT22;7442;50.840;3.396;2023-09-18T13:40:54;28.10;56.90
14705;DHT22;7442;50.840;3.396;2023-09-18T13:43:40;28.10;56.90
14705;DHT22;7442;50.840;3.396;2023-09-18T13:46:27;28.20;56.90
14705;DHT22;7442;50.840;3.396;2023-09-18T13:49:13;28.20;56.90
14705;DHT22;7442;50.840;3.396;2023-09-18T13:51:59;28.20;57.00
14705;DHT22;7442;50.840;3.396;2023-09-18T13:54:46;28.20;57.10
14705;DHT22;7442;50.840;3.396;2023-09-18T13:57:35;28.20;57.20
14705;DHT22;7442;50.840;3.396;2023-09-18T14:00:22;28.30;57.10
14705;DHT22;7442;50.840;3.396;2023-09-18T14:03:10;28.30;57.10
14705;DHT22;7442;50.840;3.396;2023-09-18T14:05:57;28.30;57.20
14705;DHT22;7442;50.840;3.396;2023-09-18T14:08:43;28.30;57.30
14705;DHT22;7442;50.840;3.396;2023-09-18T14:11:29;28.30;57.20
14705;DHT22;7442;50.840;3.396;2023-09-18T14:14:16;28.30;57.30
14705;DHT22;7442;50.840;3.396;2023-09-18T14:17:03;28.30;57.40
14705;DHT22;7442;50.840;3.396;2023-09-18T14:19:49;28.30;57.40
14705;DHT22;7442;50.840;3.396;2023-09-18T14:22:37;28.30;57.50
14705;DHT22;7442;50.840;3.396;2023-09-18T14:25:24;28.30;57.50
14705;DHT22;7442;50.840;3.396;2023-09-18T14:28:10;28.30;57.50
14705;DHT22;7442;50.840;3.396;2023-09-18T14:30:56;28.30;57.50
14705;DHT22;7442;50.840;3.396;2023-09-18T14:33:43;28.40;57.50
14705;DHT22;7442;50.840;3.396;2023-09-18T14:36:30;28.40;57.40
14705;DHT22;7442;50.840;3.396;2023-09-18T14:39:17;28.40;57.30
14705;DHT22;7442;50.840;3.396;2023-09-18T14:42:04;28.40;57.30
14705;DHT22;7442;50.840;3.396;2023-09-18T14:44:50;28.40;57.20
14705;DHT22;7442;50.840;3.396;2023-09-18T14:47:36;28.50;57.20
14705;DHT22;7442;50.840;3.396;2023-09-18T14:50:23;28.40;57.30
14705;DHT22;7442;50.840;3.396;2023-09-18T14:53:09;28.40;57.30
14705;DHT22;7442;50.840;3.396;2023-09-18T14:55:56;28.40;57.40
14705;DHT22;7442;50.840;3.396;2023-09-18T14:58:43;28.40;57.20
14705;DHT22;7442;50.840;3.396;2023-09-18T15:01:29;28.40;57.10
14705;DHT22;7442;50.840;3.396;2023-09-18T15:04:15;28.30;57.20
14705;DHT22;7442;50.840;3.396;2023-09-18T15:07:02;28.40;57.20
14705;DHT22;7442;50.840;3.396;2023-09-18T15:09:48;28.30;57.00
14705;DHT22;7442;50.840;3.396;2023-09-18T15:12:35;28.30;56.90
14705;DHT22;7442;50.840;3.396;2023-09-18T15:15:22;28.40;57.00
14705;DHT22;7442;50.840;3.396;2023-09-18T15:18:10;28.40;56.80
14705;DHT22;7442;50.840;3.396;2023-09-18T15:20:56;28.40;56.70
14705;DHT22;7442;50.840;3.396;2023-09-18T15:23:43;28.40;56.60
14705;DHT22;7442;50.840;3.396;2023-09-18T15:26:30;28.40;56.50
14705;DHT22;7442;50.840;3.396;2023-09-18T15:29:16;28.40;56.50
14705;DHT22;7442;50.840;3.396;2023-09-18T15:32:02;28.40;56.60
14705;DHT22;7442;50.840;3.396;2023-09-18T15:34:49;28.40;56.40
14705;DHT22;7442;50.840;3.396;2023-09-18T15:37:35;28.40;56.50
14705;DHT22;7442;50.840;3.396;2023-09-18T15:40:22;28.40;56.40
14705;DHT22;7442;50.840;3.396;2023-09-18T15:43:09;28.40;56.40
14705;DHT22;7442;50.840;3.396;2023-09-18T15:45:56;28.30;56.40
14705;DHT22;7442;50.840;3.396;2023-09-18T15:48:44;28.30;56.40
14705;DHT22;7442;50.840;3.396;2023-09-18T15:51:30;28.30;56.50
14705;DHT22;7442;50.840;3.396;2023-09-18T15:54:16;28.30;56.50
14705;DHT22;7442;50.840;3.396;2023-09-18T15:57:03;28.20;56.40
14705;DHT22;7442;50.840;3.396;2023-09-18T15:59:50;28.30;56.40
14705;DHT22;7442;50.840;3.396;2023-09-18T16:02:37;28.20;56.30
14705;DHT22;7442;50.840;3.396;2023-09-18T16:05:23;28.20;56.50
14705;DHT22;7442;50.840;3.396;2023-09-18T16:08:11;28.20;56.40
14705;DHT22;7442;50.840;3.396;2023-09-18T16:10:58;28.10;56.30
14705;DHT22;7442;50.840;3.396;2023-09-18T16:13:47;28.10;56.10
14705;DHT22;7442;50.840;3.396;2023-09-18T16:16:35;28.10;56.00
14705;DHT22;7442;50.840;3.396;2023-09-18T16:19:21;28.00;55.80
14705;DHT22;7442;50.840;3.396;2023-09-18T16:22:08;28.10;55.30
14705;DHT22;7442;50.840;3.396;2023-09-18T16:24:56;28.00;55.50
14705;DHT22;7442;50.840;3.396;2023-09-18T16:27:44;28.00;55.40
14705;DHT22;7442;50.840;3.396;2023-09-18T16:30:30;28.00;55.60
14705;DHT22;7442;50.840;3.396;2023-09-18T16:33:16;28.00;55.30
14705;DHT22;7442;50.840;3.396;2023-09-18T16:36:06;28.10;55.30
14705;DHT22;7442;50.840;3.396;2023-09-18T16:38:52;28.10;55.00
14705;DHT22;7442;50.840;3.396;2023-09-18T16:41:38;28.10;55.10
14705;DHT22;7442;50.840;3.396;2023-09-18T16:44:25;28.10;55.00
14705;DHT22;7442;50.840;3.396;2023-09-18T16:47:11;28.10;54.70
14705;DHT22;7442;50.840;3.396;2023-09-18T16:49:57;28.30;54.40
14705;DHT22;7442;50.840;3.396;2023-09-18T16:52:44;28.30;54.30
14705;DHT22;7442;50.840;3.396;2023-09-18T16:55:32;28.30;54.40
14705;DHT22;7442;50.840;3.396;2023-09-18T16:58:18;28.20;54.40
14705;DHT22;7442;50.840;3.396;2023-09-18T17:01:05;28.10;54.00
14705;DHT22;7442;50.840;3.396;2023-09-18T17:03:51;28.10;53.60
14705;DHT22;7442;50.840;3.396;2023-09-18T17:06:37;28.10;53.70
14705;DHT22;7442;50.840;3.396;2023-09-18T17:09:24;28.20;53.60
14705;DHT22;7442;50.840;3.396;2023-09-18T17:12:11;28.20;53.50
14705;DHT22;7442;50.840;3.396;2023-09-18T17:14:57;28.20;53.20
14705;DHT22;7442;50.840;3.396;2023-09-18T17:17:43;28.20;52.80
14705;DHT22;7442;50.840;3.396;2023-09-18T17:20:30;28.20;52.80
14705;DHT22;7442;50.840;3.396;2023-09-18T17:23:17;28.30;52.80
14705;DHT22;7442;50.840;3.396;2023-09-18T17:26:04;28.40;52.80
14705;DHT22;7442;50.840;3.396;2023-09-18T17:28:50;28.40;52.70
14705;DHT22;7442;50.840;3.396;2023-09-18T17:31:38;28.30;52.80
14705;DHT22;7442;50.840;3.396;2023-09-18T17:34:24;28.40;52.60
14705;DHT22;7442;50.840;3.396;2023-09-18T17:37:24;28.80;51.40
14705;DHT22;7442;50.840;3.396;2023-09-18T17:40:18;28.70;50.60
14705;DHT22;7442;50.840;3.396;2023-09-18T17:43:11;28.70;51.60
14705;DHT22;7442;50.840;3.396;2023-09-18T17:46:04;28.90;50.50
14705;DHT22;7442;50.840;3.396;2023-09-18T17:48:57;30.00;48.40
14705;DHT22;7442;50.840;3.396;2023-09-18T17:51:43;30.40;47.30
14705;DHT22;7442;50.840;3.396;2023-09-18T17:54:30;30.40;47.50
14705;DHT22;7442;50.840;3.396;2023-09-18T17:57:16;30.40;47.50
14705;DHT22;7442;50.840;3.396;2023-09-18T18:00:06;30.20;47.70
14705;DHT22;7442;50.840;3.396;2023-09-18T18:02:51;30.00;48.00
14705;DHT22;7442;50.840;3.396;2023-09-18T18:05:40;29.90;48.20